sensor_id;sensor_type;location;lat;lon;timestamp;P1;durP1;ratioP1;P2;durP2;ratioP2
41903;SDS011;27586;51.124;4.182;2023-07-31T00:00:28;14.90;;;6.68;;
41903;SDS011;27586;51.124;4.182;2023-07-31T00:02:53;14.93;;;6.22;;
41903;SDS011;27586;51.124;4.182;2023-07-31T00:05:19;17.00;;;6.40;;
41903;SDS011;27586;51.124;4.182;2023-07-31T00:07:45;16.45;;;6.82;;
41903;SDS011;27586;51.124;4.182;2023-07-31T00:10:11;12.80;;;6.47;;
41903;SDS011;27586;51.124;4.182;2023-07-31T00:12:37;16.20;;;7.07;;
41903;SDS011;27586;51.124;4.182;2023-07-31T00:15:04;12.48;;;6.43;;
41903;SDS011;27586;51.124;4.182;2023-07-31T00:17:31;18.58;;;6.38;;
41903;SDS011;27586;51.124;4.182;2023-07-31T00:19:57;14.60;;;6.60;;
41903;SDS011;27586;51.124;4.182;2023-07-31T00:22:22;14.45;;;5.95;;
41903;SDS011;27586;51.124;4.182;2023-07-31T00:24:49;14.75;;;6.80;;
41903;SDS011;27586;51.124;4.182;2023-07-31T00:27:14;16.50;;;6.85;;
41903;SDS011;27586;51.124;4.182;2023-07-31T00:29:40;13.32;;;6.53;;
41903;SDS011;27586;51.124;4.182;2023-07-31T00:32:06;14.90;;;6.70;;
41903;SDS011;27586;51.124;4.182;2023-07-31T00:34:32;15.52;;;7.40;;
41903;SDS011;27586;51.124;4.182;2023-07-31T00:36:57;14.15;;;7.15;;
41903;SDS011;27586;51.124;4.182;2023-07-31T00:39:23;15.77;;;6.82;;
41903;SDS011;27586;51.124;4.182;2023-07-31T00:41:49;17.17;;;7.18;;
41903;SDS011;27586;51.124;4.182;2023-07-31T00:44:14;14.90;;;7.05;;
41903;SDS011;27586;51.124;4.182;2023-07-31T00:46:40;15.05;;;6.47;;
41903;SDS011;27586;51.124;4.182;2023-07-31T00:49:06;16.60;;;7.05;;
41903;SDS011;27586;51.124;4.182;2023-07-31T00:51:32;15.40;;;6.75;;
41903;SDS011;27586;51.124;4.182;2023-07-31T00:53:58;12.45;;;6.78;;
41903;SDS011;27586;51.124;4.182;2023-07-31T00:56:24;15.13;;;7.07;;
41903;SDS011;27586;51.124;4.182;2023-07-31T00:58:51;15.15;;;7.22;;
41903;SDS011;27586;51.124;4.182;2023-07-31T01:01:16;13.88;;;7.10;;
41903;SDS011;27586;51.124;4.182;2023-07-31T01:03:42;16.42;;;6.70;;
41903;SDS011;27586;51.124;4.182;2023-07-31T01:11:53;14.95;;;6.28;;
41903;SDS011;27586;51.124;4.182;2023-07-31T01:14:22;15.10;;;6.15;;
41903;SDS011;27586;51.124;4.182;2023-07-31T01:16:48;13.15;;;6.00;;
41903;SDS011;27586;51.124;4.182;2023-07-31T01:19:17;13.25;;;6.55;;
41903;SDS011;27586;51.124;4.182;2023-07-31T01:22:07;13.57;;;6.32;;
41903;SDS011;27586;51.124;4.182;2023-07-31T01:27:42;16.33;;;6.60;;
41903;SDS011;27586;51.124;4.182;2023-07-31T01:30:16;16.23;;;7.00;;
41903;SDS011;27586;51.124;4.182;2023-07-31T01:32:47;13.48;;;6.78;;
41903;SDS011;27586;51.124;4.182;2023-07-31T01:35:14;16.58;;;6.47;;
41903;SDS011;27586;51.124;4.182;2023-07-31T01:37:40;13.98;;;6.97;;
41903;SDS011;27586;51.124;4.182;2023-07-31T01:40:06;14.73;;;6.32;;
41903;SDS011;27586;51.124;4.182;2023-07-31T01:42:32;15.45;;;6.43;;
41903;SDS011;27586;51.124;4.182;2023-07-31T01:44:57;13.55;;;6.70;;
41903;SDS011;27586;51.124;4.182;2023-07-31T01:47:23;17.88;;;6.47;;
41903;SDS011;27586;51.124;4.182;2023-07-31T01:49:49;14.90;;;6.35;;
41903;SDS011;27586;51.124;4.182;2023-07-31T01:52:14;13.93;;;6.55;;
41903;SDS011;27586;51.124;4.182;2023-07-31T01:54:40;11.63;;;5.97;;
41903;SDS011;27586;51.124;4.182;2023-07-31T01:57:06;10.15;;;6.07;;
41903;SDS011;27586;51.124;4.182;2023-07-31T01:59:32;13.18;;;6.35;;
41903;SDS011;27586;51.124;4.182;2023-07-31T02:01:57;12.30;;;6.43;;
41903;SDS011;27586;51.124;4.182;2023-07-31T02:04:23;14.82;;;6.15;;
41903;SDS011;27586;51.124;4.182;2023-07-31T02:06:48;12.85;;;6.20;;
41903;SDS011;27586;51.124;4.182;2023-07-31T02:09:14;11.98;;;5.50;;
41903;SDS011;27586;51.124;4.182;2023-07-31T02:11:40;11.43;;;5.60;;
41903;SDS011;27586;51.124;4.182;2023-07-31T02:14:05;12.52;;;6.32;;
41903;SDS011;27586;51.124;4.182;2023-07-31T02:16:31;11.80;;;5.93;;
41903;SDS011;27586;51.124;4.182;2023-07-31T02:18:56;10.90;;;5.57;;
41903;SDS011;27586;51.124;4.182;2023-07-31T02:21:22;16.52;;;6.28;;
41903;SDS011;27586;51.124;4.182;2023-07-31T02:23:48;11.32;;;5.68;;
41903;SDS011;27586;51.124;4.182;2023-07-31T02:26:13;15.40;;;6.15;;
41903;SDS011;27586;51.124;4.182;2023-07-31T02:28:39;15.13;;;6.05;;
41903;SDS011;27586;51.124;4.182;2023-07-31T02:31:07;11.30;;;5.72;;
41903;SDS011;27586;51.124;4.182;2023-07-31T02:33:33;14.13;;;5.95;;
41903;SDS011;27586;51.124;4.182;2023-07-31T02:35:59;12.60;;;5.93;;
41903;SDS011;27586;51.124;4.182;2023-07-31T02:38:24;16.10;;;5.85;;
41903;SDS011;27586;51.124;4.182;2023-07-31T02:40:50;14.20;;;5.57;;
41903;SDS011;27586;51.124;4.182;2023-07-31T02:43:16;13.93;;;5.47;;
41903;SDS011;27586;51.124;4.182;2023-07-31T02:45:41;11.35;;;5.20;;
41903;SDS011;27586;51.124;4.182;2023-07-31T02:48:07;13.02;;;5.97;;
41903;SDS011;27586;51.124;4.182;2023-07-31T02:50:33;12.95;;;5.47;;
41903;SDS011;27586;51.124;4.182;2023-07-31T02:52:58;15.93;;;5.50;;
41903;SDS011;27586;51.124;4.182;2023-07-31T02:55:24;14.88;;;5.70;;
41903;SDS011;27586;51.124;4.182;2023-07-31T02:57:49;12.32;;;5.63;;
41903;SDS011;27586;51.124;4.182;2023-07-31T03:00:17;14.70;;;5.68;;
41903;SDS011;27586;51.124;4.182;2023-07-31T03:02:43;16.63;;;5.95;;
41903;SDS011;27586;51.124;4.182;2023-07-31T03:05:08;14.43;;;5.88;;
41903;SDS011;27586;51.124;4.182;2023-07-31T03:07:34;14.73;;;5.57;;
41903;SDS011;27586;51.124;4.182;2023-07-31T03:10:00;14.45;;;5.50;;
41903;SDS011;27586;51.124;4.182;2023-07-31T03:12:25;12.95;;;6.05;;
41903;SDS011;27586;51.124;4.182;2023-07-31T03:14:52;13.95;;;6.22;;
41903;SDS011;27586;51.124;4.182;2023-07-31T03:17:18;10.27;;;5.00;;
41903;SDS011;27586;51.124;4.182;2023-07-31T03:19:43;15.25;;;6.28;;
41903;SDS011;27586;51.124;4.182;2023-07-31T03:22:09;10.63;;;5.95;;
41903;SDS011;27586;51.124;4.182;2023-07-31T03:24:35;13.10;;;6.60;;
41903;SDS011;27586;51.124;4.182;2023-07-31T03:27:00;14.20;;;6.25;;
41903;SDS011;27586;51.124;4.182;2023-07-31T03:29:26;14.50;;;6.15;;
41903;SDS011;27586;51.124;4.182;2023-07-31T03:31:52;14.95;;;5.70;;
41903;SDS011;27586;51.124;4.182;2023-07-31T03:34:17;12.65;;;6.05;;
41903;SDS011;27586;51.124;4.182;2023-07-31T03:36:43;15.02;;;6.10;;
41903;SDS011;27586;51.124;4.182;2023-07-31T03:39:09;12.00;;;5.97;;
41903;SDS011;27586;51.124;4.182;2023-07-31T03:41:35;13.55;;;6.32;;
41903;SDS011;27586;51.124;4.182;2023-07-31T03:44:00;11.63;;;6.07;;
41903;SDS011;27586;51.124;4.182;2023-07-31T03:46:26;10.02;;;5.65;;
41903;SDS011;27586;51.124;4.182;2023-07-31T03:48:52;12.13;;;6.07;;
41903;SDS011;27586;51.124;4.182;2023-07-31T03:51:17;12.10;;;5.95;;
41903;SDS011;27586;51.124;4.182;2023-07-31T03:53:43;11.43;;;6.25;;
41903;SDS011;27586;51.124;4.182;2023-07-31T03:56:09;13.43;;;6.70;;
41903;SDS011;27586;51.124;4.182;2023-07-31T03:58:35;12.70;;;6.25;;
41903;SDS011;27586;51.124;4.182;2023-07-31T04:01:02;13.02;;;6.78;;
41903;SDS011;27586;51.124;4.182;2023-07-31T04:03:27;11.90;;;5.82;;
41903;SDS011;27586;51.124;4.182;2023-07-31T04:05:54;13.40;;;5.97;;
41903;SDS011;27586;51.124;4.182;2023-07-31T04:08:23;10.13;;;6.18;;
41903;SDS011;27586;51.124;4.182;2023-07-31T04:10:49;11.23;;;5.78;;
41903;SDS011;27586;51.124;4.182;2023-07-31T04:13:14;12.00;;;6.15;;
41903;SDS011;27586;51.124;4.182;2023-07-31T04:15:40;13.80;;;6.43;;
41903;SDS011;27586;51.124;4.182;2023-07-31T04:18:06;8.73;;;5.93;;
41903;SDS011;27586;51.124;4.182;2023-07-31T04:20:32;12.20;;;6.22;;
41903;SDS011;27586;51.124;4.182;2023-07-31T04:22:57;12.90;;;6.05;;
41903;SDS011;27586;51.124;4.182;2023-07-31T04:25:23;11.75;;;5.90;;
41903;SDS011;27586;51.124;4.182;2023-07-31T04:27:49;8.20;;;5.63;;
41903;SDS011;27586;51.124;4.182;2023-07-31T04:30:15;10.77;;;6.30;;
41903;SDS011;27586;51.124;4.182;2023-07-31T04:32:40;13.82;;;6.22;;
41903;SDS011;27586;51.124;4.182;2023-07-31T04:35:06;12.98;;;5.70;;
41903;SDS011;27586;51.124;4.182;2023-07-31T04:37:32;8.60;;;6.07;;
41903;SDS011;27586;51.124;4.182;2023-07-31T04:39:57;14.35;;;6.05;;
41903;SDS011;27586;51.124;4.182;2023-07-31T04:42:23;11.13;;;6.57;;
41903;SDS011;27586;51.124;4.182;2023-07-31T04:44:49;9.15;;;6.05;;
41903;SDS011;27586;51.124;4.182;2023-07-31T04:47:14;9.70;;;5.85;;
41903;SDS011;27586;51.124;4.182;2023-07-31T04:49:40;9.63;;;5.70;;
41903;SDS011;27586;51.124;4.182;2023-07-31T04:52:06;12.00;;;5.55;;
41903;SDS011;27586;51.124;4.182;2023-07-31T04:54:31;9.88;;;5.85;;
41903;SDS011;27586;51.124;4.182;2023-07-31T04:56:57;8.43;;;5.40;;
41903;SDS011;27586;51.124;4.182;2023-07-31T04:59:23;7.38;;;5.47;;
41903;SDS011;27586;51.124;4.182;2023-07-31T05:01:48;11.40;;;5.95;;
41903;SDS011;27586;51.124;4.182;2023-07-31T05:04:14;9.77;;;5.68;;
41903;SDS011;27586;51.124;4.182;2023-07-31T05:06:40;8.23;;;5.55;;
41903;SDS011;27586;51.124;4.182;2023-07-31T05:09:06;9.35;;;5.47;;
41903;SDS011;27586;51.124;4.182;2023-07-31T05:11:32;8.02;;;5.32;;
41903;SDS011;27586;51.124;4.182;2023-07-31T05:13:57;9.35;;;5.88;;
41903;SDS011;27586;51.124;4.182;2023-07-31T05:16:23;8.95;;;5.50;;
41903;SDS011;27586;51.124;4.182;2023-07-31T05:18:49;10.88;;;6.18;;
41903;SDS011;27586;51.124;4.182;2023-07-31T05:21:14;10.18;;;5.80;;
41903;SDS011;27586;51.124;4.182;2023-07-31T05:23:40;11.35;;;6.28;;
41903;SDS011;27586;51.124;4.182;2023-07-31T05:26:06;9.52;;;5.95;;
41903;SDS011;27586;51.124;4.182;2023-07-31T05:28:34;7.38;;;5.78;;
41903;SDS011;27586;51.124;4.182;2023-07-31T05:31:00;9.15;;;6.28;;
41903;SDS011;27586;51.124;4.182;2023-07-31T05:33:27;8.88;;;5.80;;
41903;SDS011;27586;51.124;4.182;2023-07-31T05:35:52;7.95;;;6.38;;
41903;SDS011;27586;51.124;4.182;2023-07-31T05:38:18;7.65;;;5.82;;
41903;SDS011;27586;51.124;4.182;2023-07-31T05:40:44;12.50;;;6.28;;
41903;SDS011;27586;51.124;4.182;2023-07-31T05:43:09;7.85;;;6.25;;
41903;SDS011;27586;51.124;4.182;2023-07-31T05:45:35;8.63;;;5.90;;
41903;SDS011;27586;51.124;4.182;2023-07-31T05:48:01;6.90;;;6.10;;
41903;SDS011;27586;51.124;4.182;2023-07-31T05:50:28;9.93;;;5.95;;
41903;SDS011;27586;51.124;4.182;2023-07-31T05:52:53;7.28;;;6.28;;
41903;SDS011;27586;51.124;4.182;2023-07-31T05:55:19;9.00;;;6.57;;
41903;SDS011;27586;51.124;4.182;2023-07-31T05:57:44;9.50;;;5.75;;
41903;SDS011;27586;51.124;4.182;2023-07-31T06:00:11;9.73;;;6.22;;
41903;SDS011;27586;51.124;4.182;2023-07-31T06:02:37;11.70;;;6.90;;
41903;SDS011;27586;51.124;4.182;2023-07-31T06:05:03;9.55;;;6.38;;
41903;SDS011;27586;51.124;4.182;2023-07-31T06:07:31;11.50;;;6.80;;
41903;SDS011;27586;51.124;4.182;2023-07-31T06:09:57;10.80;;;6.47;;
41903;SDS011;27586;51.124;4.182;2023-07-31T06:12:28;8.90;;;6.78;;
41903;SDS011;27586;51.124;4.182;2023-07-31T06:14:54;11.93;;;7.50;;
41903;SDS011;27586;51.124;4.182;2023-07-31T06:17:20;12.15;;;6.82;;
41903;SDS011;27586;51.124;4.182;2023-07-31T06:19:46;10.68;;;7.00;;
41903;SDS011;27586;51.124;4.182;2023-07-31T06:22:12;9.18;;;7.10;;
41903;SDS011;27586;51.124;4.182;2023-07-31T06:24:37;10.70;;;6.60;;
41903;SDS011;27586;51.124;4.182;2023-07-31T06:27:03;13.75;;;7.13;;
41903;SDS011;27586;51.124;4.182;2023-07-31T06:29:30;9.48;;;6.72;;
41903;SDS011;27586;51.124;4.182;2023-07-31T06:31:56;9.02;;;5.78;;
41903;SDS011;27586;51.124;4.182;2023-07-31T06:34:21;9.77;;;5.95;;
41903;SDS011;27586;51.124;4.182;2023-07-31T06:36:47;8.05;;;6.50;;
41903;SDS011;27586;51.124;4.182;2023-07-31T06:39:13;8.73;;;5.32;;
41903;SDS011;27586;51.124;4.182;2023-07-31T06:41:38;11.73;;;6.25;;
41903;SDS011;27586;51.124;4.182;2023-07-31T06:44:04;8.23;;;5.13;;
41903;SDS011;27586;51.124;4.182;2023-07-31T06:46:29;8.93;;;5.57;;
41903;SDS011;27586;51.124;4.182;2023-07-31T06:48:55;8.93;;;5.68;;
41903;SDS011;27586;51.124;4.182;2023-07-31T06:51:21;9.18;;;6.22;;
41903;SDS011;27586;51.124;4.182;2023-07-31T06:53:46;8.40;;;5.63;;
41903;SDS011;27586;51.124;4.182;2023-07-31T06:56:12;8.70;;;6.13;;
41903;SDS011;27586;51.124;4.182;2023-07-31T06:58:38;9.57;;;5.95;;
41903;SDS011;27586;51.124;4.182;2023-07-31T07:01:04;9.52;;;5.88;;
41903;SDS011;27586;51.124;4.182;2023-07-31T07:03:29;11.63;;;6.57;;
41903;SDS011;27586;51.124;4.182;2023-07-31T07:05:55;6.82;;;5.47;;
41903;SDS011;27586;51.124;4.182;2023-07-31T07:08:21;7.93;;;5.60;;
41903;SDS011;27586;51.124;4.182;2023-07-31T07:10:47;10.52;;;5.82;;
41903;SDS011;27586;51.124;4.182;2023-07-31T07:13:13;8.82;;;5.78;;
41903;SDS011;27586;51.124;4.182;2023-07-31T07:15:38;8.93;;;5.90;;
41903;SDS011;27586;51.124;4.182;2023-07-31T07:18:04;10.13;;;5.60;;
41903;SDS011;27586;51.124;4.182;2023-07-31T07:20:30;9.52;;;5.88;;
41903;SDS011;27586;51.124;4.182;2023-07-31T07:22:55;9.10;;;5.93;;
41903;SDS011;27586;51.124;4.182;2023-07-31T07:25:21;11.50;;;5.25;;
41903;SDS011;27586;51.124;4.182;2023-07-31T07:27:47;7.82;;;5.03;;
41903;SDS011;27586;51.124;4.182;2023-07-31T07:30:13;10.75;;;5.60;;
41903;SDS011;27586;51.124;4.182;2023-07-31T07:32:39;9.95;;;5.57;;
41903;SDS011;27586;51.124;4.182;2023-07-31T07:35:05;11.00;;;5.45;;
41903;SDS011;27586;51.124;4.182;2023-07-31T07:37:31;9.18;;;5.75;;
41903;SDS011;27586;51.124;4.182;2023-07-31T07:39:57;9.57;;;5.00;;
41903;SDS011;27586;51.124;4.182;2023-07-31T07:42:23;9.38;;;5.40;;
41903;SDS011;27586;51.124;4.182;2023-07-31T07:44:48;8.48;;;5.63;;
41903;SDS011;27586;51.124;4.182;2023-07-31T07:47:14;7.13;;;5.22;;
41903;SDS011;27586;51.124;4.182;2023-07-31T07:49:40;10.38;;;5.40;;
41903;SDS011;27586;51.124;4.182;2023-07-31T07:52:05;9.20;;;5.85;;
41903;SDS011;27586;51.124;4.182;2023-07-31T07:54:31;8.48;;;5.63;;
41903;SDS011;27586;51.124;4.182;2023-07-31T07:56:57;7.25;;;5.00;;
41903;SDS011;27586;51.124;4.182;2023-07-31T07:59:23;9.80;;;5.25;;
41903;SDS011;27586;51.124;4.182;2023-07-31T08:01:48;9.45;;;4.68;;
41903;SDS011;27586;51.124;4.182;2023-07-31T08:04:14;8.45;;;4.82;;
41903;SDS011;27586;51.124;4.182;2023-07-31T08:06:39;8.15;;;4.55;;
41903;SDS011;27586;51.124;4.182;2023-07-31T08:09:05;8.10;;;4.80;;
41903;SDS011;27586;51.124;4.182;2023-07-31T08:11:34;8.23;;;4.80;;
41903;SDS011;27586;51.124;4.182;2023-07-31T08:14:00;9.55;;;4.20;;
41903;SDS011;27586;51.124;4.182;2023-07-31T08:16:26;7.80;;;4.18;;
41903;SDS011;27586;51.124;4.182;2023-07-31T08:18:51;10.55;;;4.22;;
41903;SDS011;27586;51.124;4.182;2023-07-31T08:21:17;9.82;;;4.55;;
41903;SDS011;27586;51.124;4.182;2023-07-31T08:23:43;6.55;;;4.35;;
41903;SDS011;27586;51.124;4.182;2023-07-31T08:26:14;7.60;;;4.30;;
41903;SDS011;27586;51.124;4.182;2023-07-31T08:28:43;8.07;;;4.40;;
41903;SDS011;27586;51.124;4.182;2023-07-31T08:31:08;6.47;;;4.40;;
41903;SDS011;27586;51.124;4.182;2023-07-31T08:33:35;7.25;;;4.10;;
41903;SDS011;27586;51.124;4.182;2023-07-31T08:36:01;6.57;;;3.90;;
41903;SDS011;27586;51.124;4.182;2023-07-31T08:38:27;10.73;;;4.35;;
41903;SDS011;27586;51.124;4.182;2023-07-31T08:40:54;5.43;;;4.10;;
41903;SDS011;27586;51.124;4.182;2023-07-31T08:43:21;8.55;;;4.18;;
41903;SDS011;27586;51.124;4.182;2023-07-31T08:45:52;7.43;;;3.90;;
41903;SDS011;27586;51.124;4.182;2023-07-31T08:48:18;6.40;;;4.15;;
41903;SDS011;27586;51.124;4.182;2023-07-31T08:50:45;7.57;;;3.95;;
41903;SDS011;27586;51.124;4.182;2023-07-31T08:53:11;7.13;;;3.88;;
41903;SDS011;27586;51.124;4.182;2023-07-31T08:55:37;6.78;;;3.90;;
41903;SDS011;27586;51.124;4.182;2023-07-31T08:58:03;8.35;;;3.88;;
41903;SDS011;27586;51.124;4.182;2023-07-31T09:00:31;7.30;;;3.90;;
41903;SDS011;27586;51.124;4.182;2023-07-31T09:03:03;6.80;;;3.83;;
41903;SDS011;27586;51.124;4.182;2023-07-31T09:05:41;7.32;;;4.05;;
41903;SDS011;27586;51.124;4.182;2023-07-31T09:08:09;8.18;;;3.83;;
41903;SDS011;27586;51.124;4.182;2023-07-31T09:10:40;6.47;;;3.78;;
41903;SDS011;27586;51.124;4.182;2023-07-31T09:13:06;6.88;;;3.45;;
41903;SDS011;27586;51.124;4.182;2023-07-31T09:15:33;6.05;;;3.63;;
41903;SDS011;27586;51.124;4.182;2023-07-31T09:18:00;5.57;;;3.60;;
41903;SDS011;27586;51.124;4.182;2023-07-31T09:20:27;7.07;;;3.90;;
41903;SDS011;27586;51.124;4.182;2023-07-31T09:22:53;5.68;;;3.30;;
41903;SDS011;27586;51.124;4.182;2023-07-31T09:25:21;5.93;;;3.92;;
41903;SDS011;27586;51.124;4.182;2023-07-31T09:30:19;5.65;;;3.20;;
41903;SDS011;27586;51.124;4.182;2023-07-31T09:32:47;4.90;;;3.38;;
41903;SDS011;27586;51.124;4.182;2023-07-31T09:35:15;6.45;;;3.40;;
41903;SDS011;27586;51.124;4.182;2023-07-31T09:37:48;4.82;;;3.38;;
41903;SDS011;27586;51.124;4.182;2023-07-31T09:40:24;4.45;;;3.13;;
41903;SDS011;27586;51.124;4.182;2023-07-31T09:42:57;4.32;;;3.78;;
41903;SDS011;27586;51.124;4.182;2023-07-31T09:45:28;5.93;;;3.38;;
41903;SDS011;27586;51.124;4.182;2023-07-31T09:47:54;5.57;;;3.85;;
41903;SDS011;27586;51.124;4.182;2023-07-31T09:50:21;5.20;;;3.50;;
41903;SDS011;27586;51.124;4.182;2023-07-31T09:52:48;6.82;;;3.58;;
41903;SDS011;27586;51.124;4.182;2023-07-31T09:55:14;6.80;;;3.85;;
41903;SDS011;27586;51.124;4.182;2023-07-31T09:57:40;5.80;;;3.83;;
41903;SDS011;27586;51.124;4.182;2023-07-31T10:00:08;7.10;;;3.67;;
41903;SDS011;27586;51.124;4.182;2023-07-31T10:02:34;5.53;;;3.63;;
41903;SDS011;27586;51.124;4.182;2023-07-31T10:05:02;5.63;;;3.88;;
41903;SDS011;27586;51.124;4.182;2023-07-31T10:07:30;6.53;;;4.18;;
41903;SDS011;27586;51.124;4.182;2023-07-31T10:09:59;8.55;;;4.47;;
41903;SDS011;27586;51.124;4.182;2023-07-31T10:12:26;5.05;;;4.40;;
41903;SDS011;27586;51.124;4.182;2023-07-31T10:14:55;7.20;;;4.00;;
41903;SDS011;27586;51.124;4.182;2023-07-31T10:17:22;7.35;;;4.50;;
41903;SDS011;27586;51.124;4.182;2023-07-31T10:19:48;6.43;;;4.50;;
41903;SDS011;27586;51.124;4.182;2023-07-31T10:22:15;7.53;;;4.25;;
41903;SDS011;27586;51.124;4.182;2023-07-31T10:24:44;6.43;;;4.00;;
41903;SDS011;27586;51.124;4.182;2023-07-31T10:27:11;7.03;;;4.30;;
41903;SDS011;27586;51.124;4.182;2023-07-31T10:29:37;6.78;;;4.60;;
41903;SDS011;27586;51.124;4.182;2023-07-31T10:32:05;5.57;;;4.40;;
41903;SDS011;27586;51.124;4.182;2023-07-31T10:34:35;9.48;;;5.10;;
41903;SDS011;27586;51.124;4.182;2023-07-31T10:44:59;8.20;;;6.05;;
41903;SDS011;27586;51.124;4.182;2023-07-31T10:47:29;9.13;;;6.70;;
41903;SDS011;27586;51.124;4.182;2023-07-31T10:50:10;8.02;;;6.13;;
41903;SDS011;27586;51.124;4.182;2023-07-31T10:52:47;7.75;;;6.07;;
41903;SDS011;27586;51.124;4.182;2023-07-31T10:55:38;7.72;;;6.75;;
41903;SDS011;27586;51.124;4.182;2023-07-31T11:00:43;10.50;;;6.22;;
41903;SDS011;27586;51.124;4.182;2023-07-31T11:03:19;10.07;;;7.10;;
41903;SDS011;27586;51.124;4.182;2023-07-31T11:05:51;9.30;;;7.03;;
41903;SDS011;27586;51.124;4.182;2023-07-31T11:08:23;9.93;;;7.10;;
41903;SDS011;27586;51.124;4.182;2023-07-31T11:13:49;12.23;;;7.80;;
41903;SDS011;27586;51.124;4.182;2023-07-31T11:16:20;10.13;;;7.35;;
41903;SDS011;27586;51.124;4.182;2023-07-31T11:18:48;12.23;;;7.75;;
41903;SDS011;27586;51.124;4.182;2023-07-31T11:21:17;9.02;;;7.07;;
41903;SDS011;27586;51.124;4.182;2023-07-31T11:23:51;9.95;;;7.30;;
41903;SDS011;27586;51.124;4.182;2023-07-31T11:26:18;10.77;;;6.65;;
41903;SDS011;27586;51.124;4.182;2023-07-31T11:28:46;9.63;;;7.00;;
41903;SDS011;27586;51.124;4.182;2023-07-31T11:31:12;10.63;;;7.22;;
41903;SDS011;27586;51.124;4.182;2023-07-31T11:33:38;10.00;;;6.90;;
41903;SDS011;27586;51.124;4.182;2023-07-31T11:36:04;8.30;;;6.40;;
41903;SDS011;27586;51.124;4.182;2023-07-31T11:38:33;10.40;;;6.80;;
41903;SDS011;27586;51.124;4.182;2023-07-31T11:41:00;9.20;;;6.20;;
41903;SDS011;27586;51.124;4.182;2023-07-31T11:43:32;10.80;;;7.15;;
41903;SDS011;27586;51.124;4.182;2023-07-31T11:45:59;9.02;;;6.40;;
41903;SDS011;27586;51.124;4.182;2023-07-31T11:48:29;9.60;;;6.32;;
41903;SDS011;27586;51.124;4.182;2023-07-31T11:50:58;10.25;;;6.90;;
41903;SDS011;27586;51.124;4.182;2023-07-31T11:56:08;10.82;;;6.45;;
41903;SDS011;27586;51.124;4.182;2023-07-31T11:58:36;11.57;;;5.90;;
41903;SDS011;27586;51.124;4.182;2023-07-31T12:01:03;8.68;;;6.80;;
41903;SDS011;27586;51.124;4.182;2023-07-31T12:03:29;12.90;;;7.13;;
41903;SDS011;27586;51.124;4.182;2023-07-31T12:05:56;12.85;;;7.07;;
41903;SDS011;27586;51.124;4.182;2023-07-31T12:08:23;13.88;;;7.38;;
41903;SDS011;27586;51.124;4.182;2023-07-31T12:10:50;9.45;;;6.32;;
41903;SDS011;27586;51.124;4.182;2023-07-31T12:13:20;10.50;;;7.15;;
41903;SDS011;27586;51.124;4.182;2023-07-31T12:15:48;11.05;;;6.10;;
41903;SDS011;27586;51.124;4.182;2023-07-31T12:18:21;10.20;;;6.82;;
41903;SDS011;27586;51.124;4.182;2023-07-31T12:20:49;12.35;;;6.03;;
41903;SDS011;27586;51.124;4.182;2023-07-31T12:23:23;10.13;;;5.97;;
41903;SDS011;27586;51.124;4.182;2023-07-31T12:28:36;9.20;;;6.03;;
41903;SDS011;27586;51.124;4.182;2023-07-31T12:31:04;7.38;;;5.13;;
41903;SDS011;27586;51.124;4.182;2023-07-31T12:33:30;9.82;;;5.43;;
41903;SDS011;27586;51.124;4.182;2023-07-31T12:35:57;10.93;;;5.90;;
41903;SDS011;27586;51.124;4.182;2023-07-31T12:38:25;7.03;;;4.82;;
41903;SDS011;27586;51.124;4.182;2023-07-31T12:40:51;6.95;;;5.13;;
41903;SDS011;27586;51.124;4.182;2023-07-31T12:43:17;8.23;;;4.78;;
41903;SDS011;27586;51.124;4.182;2023-07-31T12:45:42;7.72;;;5.40;;
41903;SDS011;27586;51.124;4.182;2023-07-31T12:48:08;8.00;;;5.43;;
41903;SDS011;27586;51.124;4.182;2023-07-31T12:50:34;10.85;;;5.22;;
41903;SDS011;27586;51.124;4.182;2023-07-31T12:53:01;9.80;;;5.30;;
41903;SDS011;27586;51.124;4.182;2023-07-31T12:55:28;10.35;;;5.80;;
41903;SDS011;27586;51.124;4.182;2023-07-31T12:57:55;9.85;;;5.85;;
41903;SDS011;27586;51.124;4.182;2023-07-31T13:00:21;10.35;;;6.30;;
41903;SDS011;27586;51.124;4.182;2023-07-31T13:02:47;11.35;;;5.80;;
41903;SDS011;27586;51.124;4.182;2023-07-31T13:05:12;8.85;;;5.75;;
41903;SDS011;27586;51.124;4.182;2023-07-31T13:07:38;10.10;;;6.43;;
41903;SDS011;27586;51.124;4.182;2023-07-31T13:10:05;9.05;;;5.88;;
41903;SDS011;27586;51.124;4.182;2023-07-31T13:12:31;11.38;;;6.03;;
41903;SDS011;27586;51.124;4.182;2023-07-31T13:14:57;9.27;;;5.93;;
41903;SDS011;27586;51.124;4.182;2023-07-31T13:17:23;8.77;;;5.80;;
41903;SDS011;27586;51.124;4.182;2023-07-31T13:19:48;8.32;;;6.13;;
41903;SDS011;27586;51.124;4.182;2023-07-31T13:22:14;9.82;;;5.93;;
41903;SDS011;27586;51.124;4.182;2023-07-31T13:24:39;8.82;;;6.20;;
41903;SDS011;27586;51.124;4.182;2023-07-31T13:27:05;12.73;;;5.97;;
41903;SDS011;27586;51.124;4.182;2023-07-31T13:29:31;7.32;;;5.50;;
41903;SDS011;27586;51.124;4.182;2023-07-31T13:31:57;5.97;;;4.97;;
41903;SDS011;27586;51.124;4.182;2023-07-31T13:34:23;7.60;;;4.55;;
41903;SDS011;27586;51.124;4.182;2023-07-31T13:36:48;8.27;;;4.53;;
41903;SDS011;27586;51.124;4.182;2023-07-31T13:39:14;5.60;;;4.40;;
41903;SDS011;27586;51.124;4.182;2023-07-31T13:41:40;5.38;;;3.92;;
41903;SDS011;27586;51.124;4.182;2023-07-31T13:44:06;7.45;;;4.20;;
41903;SDS011;27586;51.124;4.182;2023-07-31T13:46:32;6.97;;;4.40;;
41903;SDS011;27586;51.124;4.182;2023-07-31T13:48:58;4.50;;;3.42;;
41903;SDS011;27586;51.124;4.182;2023-07-31T13:51:24;6.13;;;3.10;;
41903;SDS011;27586;51.124;4.182;2023-07-31T13:53:50;4.70;;;2.88;;
41903;SDS011;27586;51.124;4.182;2023-07-31T13:56:16;6.25;;;3.10;;
41903;SDS011;27586;51.124;4.182;2023-07-31T13:58:42;4.88;;;3.00;;
41903;SDS011;27586;51.124;4.182;2023-07-31T14:01:08;5.53;;;2.55;;
41903;SDS011;27586;51.124;4.182;2023-07-31T14:03:34;6.18;;;2.70;;
41903;SDS011;27586;51.124;4.182;2023-07-31T14:05:59;4.22;;;2.58;;
41903;SDS011;27586;51.124;4.182;2023-07-31T14:08:25;5.72;;;2.40;;
41903;SDS011;27586;51.124;4.182;2023-07-31T14:10:51;3.28;;;2.25;;
41903;SDS011;27586;51.124;4.182;2023-07-31T14:13:16;3.80;;;2.35;;
41903;SDS011;27586;51.124;4.182;2023-07-31T14:15:42;3.55;;;2.30;;
41903;SDS011;27586;51.124;4.182;2023-07-31T14:18:08;3.42;;;2.13;;
41903;SDS011;27586;51.124;4.182;2023-07-31T14:20:34;3.53;;;2.10;;
41903;SDS011;27586;51.124;4.182;2023-07-31T14:23:00;4.70;;;2.45;;
41903;SDS011;27586;51.124;4.182;2023-07-31T14:25:28;2.95;;;2.65;;
41903;SDS011;27586;51.124;4.182;2023-07-31T14:27:53;2.70;;;2.40;;
41903;SDS011;27586;51.124;4.182;2023-07-31T14:30:19;3.40;;;2.85;;
41903;SDS011;27586;51.124;4.182;2023-07-31T14:32:45;4.28;;;3.00;;
41903;SDS011;27586;51.124;4.182;2023-07-31T14:35:11;5.90;;;3.63;;
41903;SDS011;27586;51.124;4.182;2023-07-31T14:37:37;5.40;;;3.47;;
41903;SDS011;27586;51.124;4.182;2023-07-31T14:40:07;5.43;;;3.60;;
41903;SDS011;27586;51.124;4.182;2023-07-31T14:42:34;5.55;;;3.45;;
41903;SDS011;27586;51.124;4.182;2023-07-31T14:45:00;5.05;;;3.58;;
41903;SDS011;27586;51.124;4.182;2023-07-31T14:47:26;4.38;;;3.13;;
41903;SDS011;27586;51.124;4.182;2023-07-31T14:49:51;4.43;;;3.75;;
41903;SDS011;27586;51.124;4.182;2023-07-31T14:52:17;7.20;;;3.50;;
41903;SDS011;27586;51.124;4.182;2023-07-31T14:54:43;6.07;;;3.47;;
41903;SDS011;27586;51.124;4.182;2023-07-31T14:57:09;5.00;;;3.60;;
41903;SDS011;27586;51.124;4.182;2023-07-31T14:59:34;6.38;;;3.67;;
41903;SDS011;27586;51.124;4.182;2023-07-31T15:02:00;4.25;;;2.72;;
41903;SDS011;27586;51.124;4.182;2023-07-31T15:04:26;4.20;;;3.10;;
41903;SDS011;27586;51.124;4.182;2023-07-31T15:06:51;5.60;;;2.90;;